createdAt,value
2023-05-19T00:00:10.722Z,53.14
2023-05-19T00:01:10.665Z,53.02
2023-05-19T00:02:10.687Z,53.25
2023-05-19T00:03:10.760Z,53.50
2023-05-19T00:04:10.648Z,53.42
2023-05-19T00:05:10.659Z,53.46
2023-05-19T00:06:10.700Z,55.98
2023-05-19T00:07:10.625Z,53.65
2023-05-19T00:08:10.671Z,54.29
2023-05-19T00:09:10.626Z,53.10
2023-05-19T00:10:10.603Z,53.03
2023-05-19T00:11:10.613Z,53.23
2023-05-19T00:12:10.609Z,53.12
2023-05-19T00:13:10.643Z,53.07
2023-05-19T00:14:10.589Z,53.26
2023-05-19T00:15:10.577Z,53.09
2023-05-19T00:16:10.631Z,53.35
2023-05-19T00:17:10.592Z,53.20
2023-05-19T00:18:10.559Z,53.21
2023-05-19T00:19:10.792Z,52.87
2023-05-19T00:20:10.542Z,53.28
2023-05-19T00:21:10.536Z,53.31
2023-05-19T00:22:10.539Z,53.34
2023-05-19T00:23:10.520Z,53.17
2023-05-19T00:24:10.546Z,52.94
2023-05-19T00:25:10.517Z,54.29
2023-05-19T00:26:10.492Z,54.27
2023-05-19T00:27:10.517Z,54.71
2023-05-19T00:28:10.466Z,53.24
2023-05-19T00:29:10.886Z,53.41
2023-05-19T00:30:10.458Z,52.94
2023-05-19T00:31:10.447Z,53.22
2023-05-19T00:32:10.532Z,53.49
2023-05-19T00:33:10.496Z,53.77
2023-05-19T00:34:10.471Z,53.65
2023-05-19T00:35:10.452Z,53.49
2023-05-19T00:36:10.435Z,53.12
2023-05-19T00:37:10.403Z,53.16
2023-05-19T00:38:10.469Z,53.40
2023-05-19T00:39:10.423Z,53.07
2023-05-19T00:40:10.416Z,53.21
2023-05-19T00:41:10.404Z,53.50
2023-05-19T00:42:10.398Z,53.44
2023-05-19T00:43:10.370Z,53.16
2023-05-19T00:44:10.361Z,53.16
2023-05-19T00:45:10.389Z,53.23
2023-05-19T00:46:10.400Z,53.10
2023-05-19T00:47:10.384Z,53.32
2023-05-19T00:48:10.436Z,54.49
2023-05-19T00:49:10.330Z,52.98
2023-05-19T00:50:10.344Z,53.10
2023-05-19T00:51:10.350Z,53.16
2023-05-19T00:52:10.287Z,53.06
2023-05-19T00:53:10.327Z,53.13
2023-05-19T00:54:10.301Z,53.35
2023-05-19T00:55:10.294Z,53.44
2023-05-19T00:56:10.309Z,53.14
2023-05-19T00:57:10.283Z,53.41
2023-05-19T00:58:10.249Z,54.83
2023-05-19T00:59:10.242Z,54.83
2023-05-19T01:00:10.246Z,53.32
2023-05-19T01:01:10.287Z,53.23
2023-05-19T01:02:10.223Z,53.29
2023-05-19T01:03:10.357Z,53.19
2023-05-19T01:04:10.335Z,53.20
2023-05-19T01:05:10.204Z,53.37
2023-05-19T01:06:10.251Z,53.38
2023-05-19T01:07:10.187Z,53.18
2023-05-19T01:08:10.193Z,53.20
2023-05-19T01:09:10.184Z,52.97
2023-05-19T01:10:10.177Z,53.13
2023-05-19T01:11:10.168Z,53.61
2023-05-19T01:12:10.206Z,53.63
2023-05-19T01:13:10.165Z,53.41
2023-05-19T01:14:10.187Z,53.29
2023-05-19T01:15:10.143Z,53.40
2023-05-19T01:16:10.169Z,53.04
2023-05-19T01:17:10.171Z,53.06
2023-05-19T01:18:10.200Z,54.51
2023-05-19T01:19:10.157Z,53.80
2023-05-19T01:20:10.096Z,53.86
2023-05-19T01:21:10.121Z,55.13
2023-05-19T01:22:10.129Z,53.59
2023-05-19T01:23:10.125Z,53.54
2023-05-19T01:24:10.072Z,53.30
2023-05-19T01:25:10.139Z,53.59
2023-05-19T01:26:10.098Z,53.38
2023-05-19T01:27:10.064Z,53.39
2023-05-19T01:28:10.103Z,53.45
2023-05-19T01:29:10.046Z,53.30
2023-05-19T01:30:10.038Z,53.46
2023-05-19T01:31:10.012Z,53.82
2023-05-19T01:32:10.186Z,53.35
2023-05-19T01:33:10.045Z,53.37
2023-05-19T01:34:10.010Z,53.44
2023-05-19T01:35:09.991Z,53.39
2023-05-19T01:36:09.996Z,53.64
2023-05-19T01:37:09.987Z,53.19
2023-05-19T01:38:10.039Z,53.64
2023-05-19T01:39:09.964Z,53.58
2023-05-19T01:40:09.999Z,53.48
2023-05-19T01:41:09.970Z,53.71
2023-05-19T01:42:09.927Z,53.59
2023-05-19T01:43:09.994Z,53.28
2023-05-19T01:44:09.950Z,53.40
2023-05-19T01:45:09.935Z,54.02
2023-05-19T01:46:09.987Z,53.51
2023-05-19T01:47:09.924Z,53.50
2023-05-19T01:48:11.182Z,53.19
2023-05-19T01:49:09.964Z,53.14
2023-05-19T01:50:09.889Z,53.36
2023-05-19T01:51:09.931Z,53.07
2023-05-19T01:52:09.868Z,52.93
2023-05-19T01:53:09.876Z,53.86
2023-05-19T01:54:09.899Z,53.73
2023-05-19T01:55:10.017Z,53.41
2023-05-19T01:56:09.853Z,53.35
2023-05-19T01:57:09.887Z,53.74
2023-05-19T01:58:09.852Z,53.30
2023-05-19T01:59:09.921Z,53.72
2023-05-19T02:00:09.826Z,53.37
2023-05-19T02:01:09.891Z,53.55
2023-05-19T02:02:09.814Z,54.42
2023-05-19T02:03:09.820Z,54.16
2023-05-19T02:04:09.848Z,53.16
2023-05-19T02:05:09.829Z,54.50
2023-05-19T02:06:09.760Z,53.50
2023-05-19T02:07:09.757Z,53.38
2023-05-19T02:08:09.780Z,54.31
2023-05-19T02:09:09.759Z,53.56
2023-05-19T02:10:09.793Z,54.39
2023-05-19T02:11:09.762Z,52.98
2023-05-19T02:12:09.725Z,53.79
2023-05-19T02:13:09.745Z,53.74
2023-05-19T02:14:09.764Z,53.45
2023-05-19T02:15:09.754Z,53.35
2023-05-19T02:16:09.727Z,53.87
2023-05-19T02:17:09.688Z,54.32
2023-05-19T02:18:09.695Z,53.32
2023-05-19T02:19:09.760Z,53.38
2023-05-19T02:20:09.763Z,53.50
2023-05-19T02:21:09.675Z,55.41
2023-05-19T02:22:09.642Z,54.06
2023-05-19T02:23:09.641Z,53.76
2023-05-19T02:24:09.646Z,54.91
2023-05-19T02:25:09.656Z,53.70
2023-05-19T02:26:09.672Z,53.88
2023-05-19T02:27:09.627Z,53.59
2023-05-19T02:28:09.611Z,54.86
2023-05-19T02:29:09.607Z,54.65
2023-05-19T02:30:09.606Z,54.78
2023-05-19T02:31:09.614Z,54.38
2023-05-19T02:32:09.601Z,54.17
2023-05-19T02:33:09.610Z,55.54
2023-05-19T02:34:09.566Z,57.91
2023-05-19T02:35:09.568Z,54.91
2023-05-19T02:36:10.154Z,56.28
2023-05-19T02:37:09.559Z,55.05
2023-05-19T02:38:09.561Z,55.07
2023-05-19T02:39:09.549Z,55.42
2023-05-19T02:40:09.516Z,55.62
2023-05-19T02:41:09.526Z,57.06
2023-05-19T02:42:09.583Z,57.22
2023-05-19T02:43:09.493Z,55.70
2023-05-19T02:44:09.643Z,55.58
2023-05-19T02:45:09.498Z,55.45
2023-05-19T02:46:09.529Z,55.16
2023-05-19T02:47:09.531Z,56.16
2023-05-19T02:48:09.554Z,57.37
2023-05-19T02:49:09.467Z,57.96
2023-05-19T02:50:09.478Z,57.70
2023-05-19T02:51:09.445Z,56.63
2023-05-19T02:52:09.466Z,56.68
2023-05-19T02:53:09.475Z,57.14
2023-05-19T02:54:09.435Z,56.03
2023-05-19T02:55:09.466Z,55.72
2023-05-19T02:56:09.425Z,56.56
2023-05-19T02:57:09.393Z,55.80
2023-05-19T02:58:09.474Z,55.44
2023-05-19T02:59:09.384Z,54.90
2023-05-19T03:00:09.400Z,54.56
2023-05-19T03:01:09.407Z,54.64
2023-05-19T03:02:09.477Z,54.99
2023-05-19T03:03:09.490Z,55.40
2023-05-19T03:04:09.550Z,55.34
2023-05-19T03:05:09.347Z,54.91
2023-05-19T03:06:09.381Z,56.38
2023-05-19T03:07:09.338Z,54.25
2023-05-19T03:08:09.397Z,54.46
2023-05-19T03:09:09.327Z,54.13
2023-05-19T03:10:09.301Z,54.13
2023-05-19T03:11:09.313Z,54.32
2023-05-19T03:12:09.311Z,54.58
2023-05-19T03:13:09.286Z,54.32
2023-05-19T03:14:09.350Z,54.38
2023-05-19T03:15:09.285Z,54.70
2023-05-19T03:16:09.304Z,54.92
2023-05-19T03:17:09.319Z,55.23
2023-05-19T03:18:09.264Z,56.02
2023-05-19T03:19:09.337Z,54.80
2023-05-19T03:20:09.228Z,55.72
2023-05-19T03:21:09.209Z,56.43
2023-05-19T03:22:09.232Z,58.29
2023-05-19T03:23:09.252Z,56.01
2023-05-19T03:24:09.228Z,55.70
2023-05-19T03:25:09.215Z,56.13
2023-05-19T03:26:09.208Z,55.59
2023-05-19T03:27:09.200Z,55.53
2023-05-19T03:28:09.186Z,54.93
2023-05-19T03:29:09.240Z,54.79
2023-05-19T03:30:09.185Z,54.93
2023-05-19T03:31:09.172Z,56.09
2023-05-19T03:32:09.177Z,56.96
2023-05-19T03:33:09.203Z,56.77
2023-05-19T03:34:09.153Z,57.51
2023-05-19T03:35:09.202Z,57.96
2023-05-19T03:36:09.132Z,57.11
2023-05-19T03:37:09.140Z,58.48
2023-05-19T03:38:09.110Z,56.78
2023-05-19T03:39:09.114Z,56.10
2023-05-19T03:40:09.159Z,57.87
2023-05-19T03:41:09.103Z,56.85
2023-05-19T03:42:09.123Z,55.96
2023-05-19T03:43:09.097Z,56.86
2023-05-19T03:44:09.086Z,55.26
2023-05-19T03:45:09.132Z,55.67
2023-05-19T03:46:09.110Z,55.69
2023-05-19T03:47:09.054Z,56.84
2023-05-19T03:48:09.098Z,54.95
2023-05-19T03:49:09.070Z,54.51
2023-05-19T03:50:09.011Z,55.36
2023-05-19T03:51:09.090Z,55.49
2023-05-19T03:52:08.995Z,58.02
2023-05-19T03:53:09.010Z,55.40
2023-05-19T03:54:09.036Z,55.46
2023-05-19T03:55:09.000Z,57.02
2023-05-19T03:56:09.029Z,55.42
2023-05-19T03:57:08.969Z,54.94
2023-05-19T03:58:08.979Z,54.99
2023-05-19T03:59:08.974Z,55.99
2023-05-19T04:00:08.936Z,56.46
2023-05-19T04:01:09.007Z,56.65
2023-05-19T04:02:08.969Z,56.23
2023-05-19T04:03:09.064Z,55.99
2023-05-19T04:04:08.977Z,55.35
2023-05-19T04:05:08.943Z,56.88
2023-05-19T04:06:08.929Z,57.15
2023-05-19T04:07:08.948Z,56.87
2023-05-19T04:08:08.916Z,54.81
2023-05-19T04:09:08.931Z,54.31
2023-05-19T04:10:08.895Z,55.45
2023-05-19T04:11:08.890Z,55.15
2023-05-19T04:12:08.932Z,55.98
2023-05-19T04:13:08.873Z,55.33
2023-05-19T04:14:08.865Z,56.56
2023-05-19T04:15:09.048Z,56.81
2023-05-19T04:16:08.875Z,56.04
2023-05-19T04:17:08.869Z,58.12
2023-05-19T04:18:08.846Z,58.97
2023-05-19T04:19:08.882Z,57.24
2023-05-19T04:20:08.807Z,59.01
2023-05-19T04:21:08.846Z,57.38
2023-05-19T04:22:08.815Z,61.89
2023-05-19T04:23:08.854Z,55.45
2023-05-19T04:24:08.779Z,55.38
2023-05-19T04:25:08.761Z,55.22
2023-05-19T04:26:08.749Z,55.78
2023-05-19T04:27:08.789Z,57.52
2023-05-19T04:28:08.771Z,56.35
2023-05-19T04:29:08.789Z,54.71
2023-05-19T04:30:08.753Z,54.93
2023-05-19T04:31:08.789Z,56.56
2023-05-19T04:32:08.737Z,58.84
2023-05-19T04:33:08.767Z,55.57
2023-05-19T04:34:08.732Z,56.05
2023-05-19T04:35:08.775Z,55.84
2023-05-19T04:36:08.722Z,55.09
2023-05-19T04:37:08.693Z,54.29
2023-05-19T04:38:08.682Z,56.23
2023-05-19T04:39:08.665Z,56.22
2023-05-19T04:40:08.674Z,56.70
2023-05-19T04:41:08.947Z,57.53
2023-05-19T04:42:08.629Z,54.39
2023-05-19T04:43:08.652Z,54.52
2023-05-19T04:44:08.657Z,55.40
2023-05-19T04:45:08.629Z,55.57
2023-05-19T04:46:09.557Z,56.03
2023-05-19T04:47:08.844Z,56.29
2023-05-19T04:48:08.630Z,56.47
2023-05-19T04:49:08.625Z,57.18
2023-05-19T04:50:08.585Z,63.59
2023-05-19T04:51:08.577Z,57.02
2023-05-19T04:52:08.596Z,60.56
2023-05-19T04:53:08.626Z,61.94
2023-05-19T04:54:08.571Z,59.39
2023-05-19T04:55:08.573Z,57.24
2023-05-19T04:56:08.552Z,61.67
2023-05-19T04:57:08.542Z,55.98
2023-05-19T04:58:08.580Z,55.38
2023-05-19T04:59:08.571Z,56.22
2023-05-19T05:00:08.553Z,54.86
2023-05-19T05:01:08.531Z,57.55
2023-05-19T05:02:08.569Z,57.64
2023-05-19T05:03:08.588Z,57.88
2023-05-19T05:04:08.586Z,57.80
2023-05-19T05:05:08.605Z,56.11
2023-05-19T05:06:08.506Z,55.30
2023-05-19T05:07:08.447Z,55.59
2023-05-19T05:08:08.470Z,54.41
2023-05-19T05:09:08.508Z,55.80
2023-05-19T05:10:08.448Z,55.81
2023-05-19T05:11:08.491Z,57.22
2023-05-19T05:12:08.441Z,56.92
2023-05-19T05:13:09.581Z,55.91
2023-05-19T05:14:08.425Z,57.23
2023-05-19T05:15:08.417Z,55.31
2023-05-19T05:16:08.476Z,56.83
2023-05-19T05:17:08.444Z,56.60
2023-05-19T05:18:08.403Z,58.60
2023-05-19T05:19:08.411Z,57.02
2023-05-19T05:20:08.431Z,55.09
2023-05-19T05:21:08.385Z,55.58
2023-05-19T05:22:08.387Z,59.62
2023-05-19T05:23:08.415Z,59.15
2023-05-19T05:24:08.344Z,56.53
2023-05-19T05:25:08.354Z,56.05
2023-05-19T05:26:08.351Z,56.22
2023-05-19T05:27:08.410Z,56.42
2023-05-19T05:28:08.329Z,57.99
2023-05-19T05:29:08.376Z,56.91
2023-05-19T05:30:08.302Z,58.12
2023-05-19T05:31:08.356Z,56.00
2023-05-19T05:32:08.344Z,69.23
2023-05-19T05:33:08.358Z,68.01
2023-05-19T05:34:08.269Z,65.39
2023-05-19T05:35:08.304Z,67.57
2023-05-19T05:36:08.261Z,69.06
2023-05-19T05:37:08.273Z,69.94
2023-05-19T05:38:08.237Z,64.83
2023-05-19T05:39:08.266Z,64.20
2023-05-19T05:40:08.251Z,64.61
2023-05-19T05:41:08.475Z,63.19
2023-05-19T05:42:08.223Z,61.47
2023-05-19T05:43:08.229Z,55.80
2023-05-19T05:44:08.195Z,58.32
2023-05-19T05:45:08.191Z,59.81
2023-05-19T05:46:08.266Z,58.14
2023-05-19T05:47:08.217Z,57.51
2023-05-19T05:48:08.213Z,56.52
2023-05-19T05:49:08.158Z,60.83
2023-05-19T05:50:08.138Z,56.15
2023-05-19T05:51:08.152Z,55.81
2023-05-19T05:52:08.110Z,57.01
2023-05-19T05:53:08.179Z,58.36
2023-05-19T05:54:08.108Z,55.56
2023-05-19T05:55:08.107Z,56.37
2023-05-19T05:56:08.113Z,56.37
2023-05-19T05:57:08.113Z,55.61
2023-05-19T05:58:08.078Z,57.69
2023-05-19T05:59:08.100Z,55.46
2023-05-19T06:00:08.135Z,58.15
2023-05-19T06:01:08.081Z,57.92
2023-05-19T06:02:08.092Z,56.06
2023-05-19T06:03:08.257Z,57.43
2023-05-19T06:04:08.053Z,57.63
2023-05-19T06:05:08.112Z,56.84
2023-05-19T06:06:08.031Z,55.38
2023-05-19T06:07:08.041Z,56.46
2023-05-19T06:08:08.003Z,56.18
2023-05-19T06:09:08.012Z,55.26
2023-05-19T06:10:07.985Z,55.66
2023-05-19T06:11:08.049Z,55.14
2023-05-19T06:12:08.036Z,57.34
2023-05-19T06:13:07.995Z,57.23
2023-05-19T06:14:07.973Z,56.11
2023-05-19T06:15:08.036Z,55.72
2023-05-19T06:16:08.119Z,61.07
2023-05-19T06:17:08.059Z,57.05
2023-05-19T06:18:07.992Z,56.14
2023-05-19T06:19:08.054Z,55.36
2023-05-19T06:20:08.014Z,55.11
2023-05-19T06:21:07.935Z,56.40
2023-05-19T06:22:07.909Z,56.10
2023-05-19T06:23:08.001Z,54.92
2023-05-19T06:24:07.892Z,55.47
2023-05-19T06:25:07.903Z,54.48
2023-05-19T06:26:07.914Z,56.20
2023-05-19T06:27:07.918Z,56.18
2023-05-19T06:28:07.891Z,58.05
2023-05-19T06:29:07.912Z,56.97
2023-05-19T06:30:07.930Z,55.95
2023-05-19T06:31:07.908Z,60.12
2023-05-19T06:32:07.892Z,56.92
2023-05-19T06:33:07.878Z,56.69
2023-05-19T06:34:07.854Z,56.29
2023-05-19T06:35:07.897Z,55.92
2023-05-19T06:36:07.832Z,58.78
2023-05-19T06:37:07.829Z,58.06
2023-05-19T06:38:07.786Z,61.74
2023-05-19T06:39:07.832Z,56.63
2023-05-19T06:40:07.835Z,55.92
2023-05-19T06:41:07.857Z,55.67
2023-05-19T06:42:07.794Z,55.57
2023-05-19T06:43:07.768Z,55.17
2023-05-19T06:44:07.771Z,57.48
2023-05-19T06:45:07.755Z,56.92
2023-05-19T06:46:07.791Z,57.01
2023-05-19T06:47:07.944Z,58.30
2023-05-19T06:48:07.787Z,56.33
2023-05-19T06:49:07.776Z,56.49
2023-05-19T06:50:07.734Z,59.16
2023-05-19T06:51:07.748Z,60.03
2023-05-19T06:52:07.712Z,57.84
2023-05-19T06:53:07.774Z,58.27
2023-05-19T06:54:07.704Z,56.19
2023-05-19T06:55:07.688Z,55.05
2023-05-19T06:56:07.714Z,57.23
2023-05-19T06:57:07.747Z,57.10
2023-05-19T06:58:07.951Z,56.29
2023-05-19T06:59:07.718Z,56.38
2023-05-19T07:00:07.649Z,56.24
2023-05-19T07:01:07.851Z,55.60
2023-05-19T07:02:07.700Z,56.66
2023-05-19T07:03:07.652Z,57.32
2023-05-19T07:04:07.742Z,55.51
2023-05-19T07:05:07.648Z,56.76
2023-05-19T07:06:08.464Z,54.80
2023-05-19T07:07:07.616Z,56.49
2023-05-19T07:08:07.580Z,54.15
2023-05-19T07:09:07.582Z,54.89
2023-05-19T07:10:07.545Z,55.64
2023-05-19T07:11:07.612Z,56.28
2023-05-19T07:12:07.542Z,56.27
2023-05-19T07:13:07.526Z,53.63
2023-05-19T07:14:07.515Z,55.24
2023-05-19T07:15:07.537Z,56.69
2023-05-19T07:16:07.679Z,55.88
2023-05-19T07:17:07.549Z,57.58
2023-05-19T07:18:07.563Z,54.14
2023-05-19T07:19:07.525Z,58.64
2023-05-19T07:20:07.504Z,58.80
2023-05-19T07:21:07.458Z,58.20
2023-05-19T07:22:07.484Z,55.13
2023-05-19T07:23:07.510Z,52.72
2023-05-19T07:24:07.475Z,52.61
2023-05-19T07:25:07.486Z,55.70
2023-05-19T07:26:07.472Z,54.26
2023-05-19T07:27:07.437Z,55.53
2023-05-19T07:28:07.425Z,55.57
2023-05-19T07:29:07.452Z,55.15
2023-05-19T07:30:07.426Z,55.85
2023-05-19T07:31:07.417Z,56.24
2023-05-19T07:32:07.434Z,57.94
2023-05-19T07:33:07.430Z,54.95
2023-05-19T07:34:07.394Z,54.63
2023-05-19T07:35:07.435Z,54.50
2023-05-19T07:36:07.375Z,54.57
2023-05-19T07:37:07.358Z,55.84
2023-05-19T07:38:07.372Z,56.70
2023-05-19T07:39:07.479Z,57.49
2023-05-19T07:40:07.332Z,55.95
2023-05-19T07:41:07.410Z,55.10
2023-05-19T07:42:07.357Z,58.42
2023-05-19T07:43:07.323Z,55.41
2023-05-19T07:44:07.340Z,57.15
2023-05-19T07:45:07.266Z,58.49
2023-05-19T07:46:07.339Z,56.89
2023-05-19T07:47:07.541Z,56.96
2023-05-19T07:48:07.331Z,58.33
2023-05-19T07:49:07.297Z,54.99
2023-05-19T07:50:07.307Z,56.40
2023-05-19T07:51:07.293Z,55.36
2023-05-19T07:52:07.279Z,55.93
2023-05-19T07:53:07.322Z,55.25
2023-05-19T07:54:07.249Z,57.03
2023-05-19T07:55:07.260Z,55.77
2023-05-19T07:56:07.249Z,56.85
2023-05-19T07:57:07.229Z,58.04
2023-05-19T07:58:07.235Z,56.49
2023-05-19T07:59:07.280Z,55.35
2023-05-19T08:00:07.215Z,55.32
2023-05-19T08:01:07.212Z,55.94
2023-05-19T08:02:07.278Z,56.29
2023-05-19T08:03:07.319Z,56.59
2023-05-19T08:04:08.521Z,54.11
2023-05-19T08:05:07.273Z,55.69
2023-05-19T08:06:07.170Z,57.23
2023-05-19T08:07:07.162Z,56.54
2023-05-19T08:08:07.176Z,56.07
2023-05-19T08:09:07.149Z,54.48
2023-05-19T08:10:07.139Z,55.94
2023-05-19T08:11:07.172Z,56.04
2023-05-19T08:12:07.126Z,55.69
2023-05-19T08:13:07.149Z,56.75
2023-05-19T08:14:07.132Z,55.53
2023-05-19T08:15:07.112Z,54.93
2023-05-19T08:16:07.176Z,57.51
2023-05-19T08:17:07.144Z,59.20
2023-05-19T08:18:07.142Z,59.95
2023-05-19T08:19:07.106Z,58.78
2023-05-19T08:20:07.053Z,59.46
2023-05-19T08:21:07.079Z,59.90
2023-05-19T08:22:07.139Z,59.93
2023-05-19T08:23:07.066Z,59.32
2023-05-19T08:24:07.061Z,59.49
2023-05-19T08:25:07.040Z,56.54
2023-05-19T08:26:07.037Z,58.47
2023-05-19T08:27:07.086Z,56.36
2023-05-19T08:28:07.034Z,55.08
2023-05-19T08:29:07.016Z,56.14
2023-05-19T08:30:07.000Z,59.42
2023-05-19T08:31:07.010Z,58.38
2023-05-19T08:32:06.994Z,59.89
2023-05-19T08:33:07.038Z,60.37
2023-05-19T08:34:06.983Z,57.95
2023-05-19T08:35:06.985Z,57.96
2023-05-19T08:36:06.977Z,54.16
2023-05-19T08:37:07.042Z,54.79
2023-05-19T08:38:06.996Z,53.91
2023-05-19T08:39:06.917Z,55.92
2023-05-19T08:40:06.941Z,55.63
2023-05-19T08:41:06.922Z,54.27
2023-05-19T08:42:06.898Z,55.84
2023-05-19T08:43:06.979Z,54.30
2023-05-19T08:44:06.904Z,56.08
2023-05-19T08:45:06.896Z,55.19
2023-05-19T08:46:06.977Z,55.34
2023-05-19T08:47:06.934Z,56.36
2023-05-19T08:48:06.921Z,57.24
2023-05-19T08:49:06.906Z,56.84
2023-05-19T08:50:06.860Z,56.80
2023-05-19T08:51:06.833Z,56.58
2023-05-19T08:52:06.834Z,58.76
2023-05-19T08:53:09.422Z,56.37
2023-05-19T08:54:07.870Z,57.30
2023-05-19T08:55:06.825Z,56.81
2023-05-19T08:56:06.814Z,56.07
2023-05-19T08:57:06.770Z,56.57
2023-05-19T08:58:06.781Z,54.72
2023-05-19T08:59:06.852Z,55.41
2023-05-19T09:00:06.779Z,55.96
2023-05-19T09:01:06.808Z,57.12
2023-05-19T09:02:06.770Z,56.29
2023-05-19T09:04:06.844Z,55.69
2023-05-19T09:05:06.813Z,56.92
2023-05-19T09:06:06.755Z,54.85
2023-05-19T09:07:06.732Z,59.19
2023-05-19T09:08:06.708Z,56.37
2023-05-19T09:09:06.683Z,58.98
2023-05-19T09:10:06.743Z,56.34
2023-05-19T09:11:06.709Z,57.97
2023-05-19T09:12:06.696Z,57.63
2023-05-19T09:13:06.679Z,58.08
2023-05-19T09:14:06.713Z,55.66
2023-05-19T09:15:06.713Z,55.83
2023-05-19T09:16:06.708Z,54.92
2023-05-19T09:17:06.724Z,55.71
2023-05-19T09:18:06.702Z,56.85
2023-05-19T09:19:06.658Z,56.33
2023-05-19T09:20:06.688Z,55.52
2023-05-19T09:21:06.653Z,57.05
2023-05-19T09:22:06.736Z,57.13
2023-05-19T09:23:06.628Z,54.49
2023-05-19T09:24:06.686Z,56.20
2023-05-19T09:25:06.567Z,56.44
2023-05-19T09:26:06.706Z,54.33
2023-05-19T09:27:06.553Z,56.46
2023-05-19T09:28:06.576Z,58.49
2023-05-19T09:29:06.597Z,58.07
2023-05-19T09:30:06.593Z,55.84
2023-05-19T09:31:06.702Z,54.43
2023-05-19T09:32:06.602Z,55.58
2023-05-19T09:33:06.659Z,56.76
2023-05-19T09:34:06.634Z,55.61
2023-05-19T09:35:06.686Z,57.25
2023-05-19T09:36:06.554Z,56.26
2023-05-19T09:37:06.691Z,55.28
2023-05-19T09:38:06.508Z,56.94
2023-05-19T09:39:06.504Z,54.16
2023-05-19T09:40:06.487Z,55.12
2023-05-19T09:41:06.488Z,54.83
2023-05-19T09:42:06.538Z,56.49
2023-05-19T09:43:06.451Z,56.06
2023-05-19T09:44:06.464Z,55.96
2023-05-19T09:45:06.428Z,56.11
2023-05-19T09:46:06.651Z,58.05
2023-05-19T09:47:06.440Z,56.04
2023-05-19T09:48:06.535Z,57.49
2023-05-19T09:49:06.402Z,55.79
2023-05-19T09:50:06.432Z,55.32
2023-05-19T09:51:06.518Z,55.79
2023-05-19T09:52:06.509Z,57.39
2023-05-19T09:53:06.436Z,55.49
2023-05-19T09:54:06.382Z,57.09
2023-05-19T09:55:06.382Z,57.10
2023-05-19T09:56:06.376Z,56.93
2023-05-19T09:57:08.418Z,56.78
2023-05-19T09:58:06.393Z,55.48
2023-05-19T09:59:06.372Z,54.57
2023-05-19T10:00:06.344Z,55.62
2023-05-19T10:01:06.412Z,58.37
2023-05-19T10:02:06.309Z,56.54
2023-05-19T10:03:06.385Z,57.63
2023-05-19T10:04:06.430Z,55.75
2023-05-19T10:05:06.366Z,55.25
2023-05-19T10:06:06.316Z,57.38
2023-05-19T10:07:06.338Z,57.29
2023-05-19T10:08:06.287Z,55.32
2023-05-19T10:09:06.317Z,57.06
2023-05-19T10:10:06.272Z,57.09
2023-05-19T10:11:06.264Z,57.14
2023-05-19T10:12:06.230Z,56.16
2023-05-19T10:13:06.279Z,55.63
2023-05-19T10:14:06.272Z,55.32
2023-05-19T10:15:06.211Z,56.05
2023-05-19T10:16:06.263Z,56.00
2023-05-19T10:17:06.239Z,58.17
2023-05-19T10:18:06.248Z,55.90
2023-05-19T10:19:06.250Z,55.63
2023-05-19T10:20:06.187Z,55.75
2023-05-19T10:21:06.175Z,58.94
2023-05-19T10:22:06.168Z,57.57
2023-05-19T10:23:06.172Z,55.56
2023-05-19T10:24:06.173Z,57.48
2023-05-19T10:25:06.233Z,56.57
2023-05-19T10:26:06.136Z,56.61
2023-05-19T10:27:06.142Z,55.73
2023-05-19T10:28:06.109Z,55.56
2023-05-19T10:29:06.183Z,54.53
2023-05-19T10:30:06.113Z,53.72
2023-05-19T10:31:06.114Z,54.83
2023-05-19T10:32:06.189Z,55.68
2023-05-19T10:33:06.121Z,54.82
2023-05-19T10:34:06.091Z,58.09
2023-05-19T10:35:06.108Z,56.90
2023-05-19T10:36:06.072Z,57.35
2023-05-19T10:37:06.070Z,57.93
2023-05-19T10:38:06.073Z,55.61
2023-05-19T10:39:06.053Z,57.03
2023-05-19T10:40:06.107Z,58.09
2023-05-19T10:41:06.054Z,56.39
2023-05-19T10:42:06.014Z,57.19
2023-05-19T10:43:06.043Z,56.48
2023-05-19T10:44:06.015Z,56.21
2023-05-19T10:45:06.072Z,55.37
2023-05-19T10:46:06.036Z,55.33
2023-05-19T10:47:06.020Z,55.19
2023-05-19T10:48:06.005Z,55.53
2023-05-19T10:49:05.986Z,55.72
2023-05-19T10:50:06.014Z,57.46
2023-05-19T10:51:06.188Z,56.01
2023-05-19T10:52:05.964Z,56.02
2023-05-19T10:53:05.972Z,55.19
2023-05-19T10:54:05.956Z,54.40
2023-05-19T10:55:05.923Z,54.61
2023-05-19T10:56:05.972Z,56.79
2023-05-19T10:57:05.927Z,55.87
2023-05-19T10:58:05.922Z,55.13
2023-05-19T10:59:05.952Z,55.07
2023-05-19T11:00:05.926Z,55.04
2023-05-19T11:01:05.945Z,54.58
2023-05-19T11:02:05.908Z,53.69
2023-05-19T11:03:05.962Z,57.19
2023-05-19T11:04:05.895Z,56.83
2023-05-19T11:05:05.881Z,56.20
2023-05-19T11:06:05.895Z,56.28
2023-05-19T11:07:05.857Z,53.54
2023-05-19T11:08:05.827Z,55.40
2023-05-19T11:09:05.867Z,56.70
2023-05-19T11:10:05.885Z,54.33
2023-05-19T11:11:05.886Z,54.00
2023-05-19T11:12:05.793Z,53.28
2023-05-19T11:13:06.477Z,54.46
2023-05-19T11:14:05.847Z,56.30
2023-05-19T11:15:05.841Z,56.30
2023-05-19T11:16:05.822Z,55.86
2023-05-19T11:17:05.902Z,57.56
2023-05-19T11:18:05.833Z,56.68
2023-05-19T11:19:05.814Z,54.21
2023-05-19T11:20:05.793Z,52.44
2023-05-19T11:21:05.824Z,54.22
2023-05-19T11:22:05.754Z,54.89
2023-05-19T11:23:05.761Z,55.44
2023-05-19T11:24:05.842Z,55.21
2023-05-19T11:25:05.734Z,52.53
2023-05-19T11:26:05.725Z,52.47
2023-05-19T11:27:05.756Z,54.10
2023-05-19T11:28:05.696Z,55.13
2023-05-19T11:29:05.691Z,58.58
2023-05-19T11:30:05.693Z,56.75
2023-05-19T11:31:05.728Z,56.70
2023-05-19T11:32:05.739Z,55.53
2023-05-19T11:33:05.818Z,54.89
2023-05-19T11:34:05.644Z,53.82
2023-05-19T11:35:05.654Z,54.50
2023-05-19T11:36:05.642Z,55.84
2023-05-19T11:37:05.653Z,56.16
2023-05-19T11:38:05.677Z,54.05
2023-05-19T11:39:05.674Z,54.73
2023-05-19T11:40:05.710Z,53.69
2023-05-19T11:41:05.663Z,53.66
2023-05-19T11:42:05.620Z,54.58
2023-05-19T11:43:05.611Z,55.79
2023-05-19T11:44:05.571Z,57.40
2023-05-19T11:45:05.660Z,57.30
2023-05-19T11:46:05.597Z,56.41
2023-05-19T11:47:05.554Z,59.61
2023-05-19T11:48:05.647Z,54.58
2023-05-19T11:49:05.553Z,56.34
2023-05-19T11:50:05.612Z,56.82
2023-05-19T11:51:05.492Z,54.03
2023-05-19T11:52:05.576Z,54.66
2023-05-19T11:53:05.527Z,56.61
2023-05-19T11:54:06.723Z,55.96
2023-05-19T11:55:05.480Z,56.39
2023-05-19T11:56:06.600Z,55.75
2023-05-19T11:57:05.500Z,52.78
2023-05-19T11:58:05.982Z,54.32
2023-05-19T11:59:05.560Z,53.94
2023-05-19T12:00:05.485Z,56.02
2023-05-19T12:01:05.459Z,58.22
2023-05-19T12:02:05.511Z,55.44
2023-05-19T12:03:05.615Z,53.75
2023-05-19T12:04:05.587Z,56.04
2023-05-19T12:05:05.547Z,56.88
2023-05-19T12:06:05.434Z,58.68
2023-05-19T12:07:05.413Z,57.07
2023-05-19T12:08:05.414Z,55.58
2023-05-19T12:09:05.388Z,55.61
2023-05-19T12:10:05.433Z,55.81
2023-05-19T12:11:05.440Z,55.68
2023-05-19T12:12:05.400Z,57.50
2023-05-19T12:13:05.374Z,55.62
2023-05-19T12:14:05.410Z,54.93
2023-05-19T12:15:05.459Z,54.81
2023-05-19T12:16:05.398Z,55.07
2023-05-19T12:17:05.331Z,54.27
2023-05-19T12:18:05.413Z,54.73
2023-05-19T12:19:05.359Z,55.82
2023-05-19T12:20:05.354Z,56.91
2023-05-19T12:21:05.318Z,57.00
2023-05-19T12:22:05.309Z,56.83
2023-05-19T12:23:05.287Z,58.19
2023-05-19T12:24:05.298Z,55.74
2023-05-19T12:25:05.328Z,55.60
2023-05-19T12:26:05.317Z,57.15
2023-05-19T12:27:05.329Z,55.83
2023-05-19T12:28:05.347Z,58.00
2023-05-19T12:29:05.301Z,57.83
2023-05-19T12:30:05.250Z,57.57
2023-05-19T12:31:05.333Z,57.67
2023-05-19T12:32:05.272Z,58.56
2023-05-19T12:33:05.218Z,56.68
2023-05-19T12:34:05.281Z,58.65
2023-05-19T12:35:05.193Z,58.04
2023-05-19T12:36:05.238Z,53.27
2023-05-19T12:37:05.233Z,55.12
2023-05-19T12:38:05.281Z,54.38
2023-05-19T12:39:05.151Z,55.84
2023-05-19T12:40:05.199Z,54.04
2023-05-19T12:41:05.138Z,54.22
2023-05-19T12:42:05.192Z,55.38
2023-05-19T12:43:05.176Z,54.25
2023-05-19T12:44:05.205Z,55.93
2023-05-19T12:45:05.154Z,56.11
2023-05-19T12:46:05.207Z,56.16
2023-05-19T12:47:05.181Z,57.51
2023-05-19T12:48:05.150Z,54.92
2023-05-19T12:49:05.113Z,54.16
2023-05-19T12:50:05.135Z,54.02
2023-05-19T12:51:05.136Z,56.45
2023-05-19T12:52:09.213Z,54.51
2023-05-19T12:53:06.090Z,55.13